createdAt,value
2022-10-11T00:00:52.323Z,75.72
2022-10-11T00:02:10.190Z,75.68
2022-10-11T00:03:14.139Z,75.76
2022-10-11T00:04:19.332Z,75.60
2022-10-11T00:05:21.487Z,75.56
2022-10-11T00:06:23.780Z,75.47
2022-10-11T00:07:25.629Z,75.49
2022-10-11T00:08:29.350Z,75.39
2022-10-11T00:09:37.273Z,75.34
2022-10-11T00:10:57.830Z,75.32
2022-10-11T00:12:03.106Z,75.34
2022-10-11T00:13:06.234Z,75.25
2022-10-11T00:14:17.414Z,75.24
2022-10-11T00:15:20.662Z,75.22
2022-10-11T00:16:31.311Z,75.16
2022-10-11T00:17:38.895Z,75.17
2022-10-11T00:18:43.482Z,75.09
2022-10-11T00:19:46.155Z,75.06
2022-10-11T00:20:48.120Z,75.01
2022-10-11T00:21:53.155Z,74.85
2022-10-11T00:22:55.344Z,74.82
2022-10-11T00:23:57.410Z,74.87
2022-10-11T00:24:59.562Z,74.79
2022-10-11T00:26:10.201Z,74.85
2022-10-11T00:27:28.775Z,75.15
2022-10-11T00:28:43.037Z,75.05
2022-10-11T00:29:52.093Z,75.23
2022-10-11T00:31:05.819Z,75.27
2022-10-11T00:32:13.046Z,75.43
2022-10-11T00:33:20.272Z,75.46
2022-10-11T00:34:22.861Z,75.36
2022-10-11T00:35:28.755Z,75.57
2022-10-11T00:36:31.835Z,75.40
2022-10-11T00:37:40.055Z,75.44
2022-10-11T00:38:45.634Z,75.43
2022-10-11T00:39:51.967Z,75.44
2022-10-11T00:40:54.212Z,75.51
2022-10-11T00:41:57.864Z,75.70
2022-10-11T00:43:00.150Z,75.79
2022-10-11T00:44:17.968Z,75.92
2022-10-11T00:45:26.477Z,76.06
2022-10-11T00:46:34.907Z,75.84
2022-10-11T00:47:40.952Z,76.02
2022-10-11T00:48:48.118Z,76.06
2022-10-11T00:49:56.070Z,76.05
2022-10-11T00:51:00.691Z,75.91
2022-10-11T00:52:15.030Z,75.85
2022-10-11T00:53:17.229Z,75.99
2022-10-11T00:54:26.106Z,75.78
2022-10-11T00:55:32.449Z,75.74
2022-10-11T00:56:38.817Z,75.76
2022-10-11T00:57:48.146Z,75.71
2022-10-11T00:58:51.231Z,75.73
2022-10-11T00:59:55.338Z,75.62
2022-10-11T01:01:00.297Z,75.67
2022-10-11T01:02:04.568Z,75.54
2022-10-11T01:03:06.485Z,75.50
2022-10-11T01:04:08.490Z,75.45
2022-10-11T01:05:35.278Z,75.49
2022-10-11T01:06:37.241Z,75.28
2022-10-11T01:07:39.984Z,75.24
2022-10-11T01:08:42.383Z,75.42
2022-10-11T01:10:09.022Z,75.37
2022-10-11T01:11:22.939Z,75.47
2022-10-11T01:12:28.917Z,75.57
2022-10-11T01:13:38.606Z,75.48
2022-10-11T01:14:57.961Z,75.49
2022-10-11T01:16:31.510Z,76.02
2022-10-11T01:18:03.745Z,75.82
2022-10-11T01:19:29.928Z,75.91
2022-10-11T01:21:07.923Z,76.14
2022-10-11T01:22:25.220Z,75.87
2022-10-11T01:23:44.625Z,75.64
2022-10-11T01:25:22.596Z,75.52
2022-10-11T01:27:02.207Z,75.21
2022-10-11T01:28:37.735Z,75.23
2022-10-11T01:30:21.653Z,75.28
2022-10-11T01:31:39.604Z,75.42
2022-10-11T01:32:59.727Z,75.63
2022-10-11T01:34:21.056Z,76.23
2022-10-11T01:35:24.130Z,76.18
2022-10-11T01:36:40.476Z,76.12
2022-10-11T01:38:08.535Z,76.18
2022-10-11T01:39:24.532Z,76.13
2022-10-11T01:40:41.903Z,76.33
2022-10-11T01:41:49.105Z,76.25
2022-10-11T01:42:59.779Z,75.99
2022-10-11T01:44:06.658Z,76.15
2022-10-11T01:45:20.717Z,76.16
2022-10-11T01:46:24.532Z,76.26
2022-10-11T01:47:29.413Z,76.39
2022-10-11T01:48:32.795Z,76.35
2022-10-11T01:49:34.721Z,76.37
2022-10-11T01:50:43.097Z,76.60
2022-10-11T01:51:54.783Z,76.59
2022-10-11T01:53:04.336Z,76.54
2022-10-11T01:54:18.280Z,76.71
2022-10-11T01:55:37.100Z,76.74
2022-10-11T01:57:11.798Z,76.83
2022-10-11T01:58:49.515Z,76.97
2022-10-11T02:00:10.676Z,76.92
2022-10-11T02:01:50.122Z,77.05
2022-10-11T02:03:28.580Z,77.14
2022-10-11T02:05:12.256Z,77.01
2022-10-11T02:06:27.531Z,77.30
2022-10-11T02:07:52.964Z,77.07
2022-10-11T02:09:22.183Z,77.25
2022-10-11T02:10:35.955Z,77.38
2022-10-11T02:11:38.596Z,77.47
2022-10-11T02:12:44.005Z,77.51
2022-10-11T02:13:55.005Z,77.53
2022-10-11T02:14:57.790Z,77.60
2022-10-11T02:16:04.675Z,77.33
2022-10-11T02:17:15.869Z,77.42
2022-10-11T02:18:31.673Z,77.42
2022-10-11T02:19:42.341Z,77.25
2022-10-11T02:20:46.059Z,77.19
2022-10-11T02:21:54.767Z,77.17
2022-10-11T02:23:02.237Z,76.91
2022-10-11T02:24:10.826Z,76.79
2022-10-11T02:25:19.228Z,76.97
2022-10-11T02:26:23.145Z,76.91
2022-10-11T02:27:29.839Z,76.82
2022-10-11T02:28:36.299Z,76.99
2022-10-11T02:29:42.980Z,76.96
2022-10-11T02:30:48.986Z,76.81
2022-10-11T02:31:52.065Z,76.89
2022-10-11T02:32:55.954Z,77.00
2022-10-11T02:34:25.669Z,76.94
2022-10-11T02:35:30.108Z,76.94
2022-10-11T02:37:10.792Z,76.72
2022-10-11T02:38:23.035Z,76.77
2022-10-11T02:39:59.041Z,76.76
2022-10-11T02:41:26.285Z,76.73
2022-10-11T02:42:36.688Z,76.45
2022-10-11T02:43:44.327Z,76.22
2022-10-11T02:45:15.591Z,76.22
2022-10-11T02:46:17.844Z,76.33
2022-10-11T02:47:20.979Z,76.48
2022-10-11T02:48:24.602Z,76.45
2022-10-11T02:49:29.289Z,76.47
2022-10-11T02:50:31.598Z,76.58
2022-10-11T02:51:33.765Z,76.67
2022-10-11T02:52:35.600Z,76.70
2022-10-11T02:53:37.429Z,76.69
2022-10-11T02:54:39.647Z,76.77
2022-10-11T02:55:41.528Z,76.82
2022-10-11T02:56:43.345Z,77.01
2022-10-11T02:57:45.517Z,77.09
2022-10-11T02:58:47.654Z,77.36
2022-10-11T02:59:49.596Z,77.51
2022-10-11T03:00:51.767Z,77.57
2022-10-11T03:01:53.820Z,77.43
2022-10-11T03:02:55.886Z,77.22
2022-10-11T03:03:58.095Z,77.10
2022-10-11T03:05:00.025Z,77.17
2022-10-11T03:06:03.955Z,77.16
2022-10-11T03:07:06.096Z,77.20
2022-10-11T03:08:09.509Z,77.11
2022-10-11T03:09:11.408Z,77.08
2022-10-11T03:10:14.287Z,76.97
2022-10-11T03:11:16.381Z,77.30
2022-10-11T03:12:18.218Z,76.99
2022-10-11T03:13:20.119Z,76.76
2022-10-11T03:14:22.014Z,76.92
2022-10-11T03:15:24.154Z,76.72
2022-10-11T03:16:29.084Z,77.04
2022-10-11T03:17:36.610Z,77.33
2022-10-11T03:18:38.835Z,77.35
2022-10-11T03:19:40.775Z,77.76
2022-10-11T03:20:42.892Z,78.10
2022-10-11T03:21:45.075Z,77.98
2022-10-11T03:22:47.005Z,77.84
2022-10-11T03:23:49.141Z,78.40
2022-10-11T03:24:51.070Z,78.42
2022-10-11T03:25:52.924Z,78.35
2022-10-11T03:26:54.750Z,78.53
2022-10-11T03:27:58.735Z,78.79
2022-10-11T03:29:00.757Z,78.81
2022-10-11T03:30:03.241Z,78.87
2022-10-11T03:31:05.385Z,78.81
2022-10-11T03:32:07.181Z,78.90
2022-10-11T03:33:09.136Z,78.63
2022-10-11T03:34:11.075Z,78.59
2022-10-11T03:35:13.216Z,78.40
2022-10-11T03:36:15.434Z,78.20
2022-10-11T03:37:17.745Z,78.32
2022-10-11T03:38:22.275Z,78.12
2022-10-11T03:39:24.099Z,78.17
2022-10-11T03:40:26.307Z,78.07
2022-10-11T03:41:31.180Z,77.95
2022-10-11T03:42:33.020Z,77.76
2022-10-11T03:43:35.070Z,77.73
2022-10-11T03:44:38.207Z,77.74
2022-10-11T03:45:43.375Z,77.64
2022-10-11T03:46:45.176Z,77.65
2022-10-11T03:47:47.015Z,77.57
2022-10-11T03:48:48.797Z,77.49
2022-10-11T03:49:51.846Z,77.63
2022-10-11T03:50:53.705Z,77.61
2022-10-11T03:51:55.667Z,77.64
2022-10-11T03:52:57.495Z,77.75
2022-10-11T03:53:59.403Z,77.71
2022-10-11T03:55:01.649Z,77.53
2022-10-11T03:56:08.276Z,77.51
2022-10-11T03:57:10.512Z,77.29
2022-10-11T03:58:12.715Z,77.24
2022-10-11T03:59:14.491Z,77.25
2022-10-11T04:00:16.862Z,77.18
2022-10-11T04:01:18.884Z,77.24
2022-10-11T04:02:20.907Z,76.94
2022-10-11T04:03:23.050Z,77.03
2022-10-11T04:04:24.962Z,76.85
2022-10-11T04:05:26.856Z,76.78
2022-10-11T04:06:28.765Z,76.80
2022-10-11T04:07:30.568Z,76.66
2022-10-11T04:08:32.605Z,76.84
2022-10-11T04:09:34.766Z,76.84
2022-10-11T04:10:36.750Z,76.93
2022-10-11T04:11:38.561Z,76.87
2022-10-11T04:12:40.293Z,76.95
2022-10-11T04:13:42.069Z,77.04
2022-10-11T04:14:44.084Z,77.29
2022-10-11T04:15:46.778Z,77.28
2022-10-11T04:16:51.571Z,77.57
2022-10-11T04:17:53.381Z,77.60
2022-10-11T04:18:55.237Z,77.85
2022-10-11T04:19:57.135Z,77.83
2022-10-11T04:20:59.528Z,77.47
2022-10-11T04:22:01.405Z,77.52
2022-10-11T04:23:03.268Z,77.57
2022-10-11T04:24:05.485Z,77.51
2022-10-11T04:25:08.865Z,77.31
2022-10-11T04:26:10.832Z,77.17
2022-10-11T04:27:12.683Z,77.62
2022-10-11T04:28:14.777Z,77.34
2022-10-11T04:29:16.888Z,77.31
2022-10-11T04:30:18.823Z,77.15
2022-10-11T04:31:20.715Z,77.11
2022-10-11T04:32:24.835Z,77.19
2022-10-11T04:33:26.931Z,77.07
2022-10-11T04:34:28.886Z,77.20
2022-10-11T04:35:31.085Z,77.09
2022-10-11T04:36:34.945Z,77.15
2022-10-11T04:37:37.435Z,77.06
2022-10-11T04:38:39.241Z,77.02
2022-10-11T04:39:41.089Z,76.96
2022-10-11T04:40:46.325Z,76.83
2022-10-11T04:41:48.188Z,76.88
2022-10-11T04:42:51.386Z,77.05
2022-10-11T04:43:53.337Z,76.94
2022-10-11T04:44:55.254Z,77.17
2022-10-11T04:45:57.103Z,77.03
2022-10-11T04:46:58.910Z,76.97
2022-10-11T04:48:00.834Z,77.07
2022-10-11T04:49:03.072Z,77.08
2022-10-11T04:50:05.675Z,77.13
2022-10-11T04:51:07.531Z,77.14
2022-10-11T04:52:09.460Z,77.08
2022-10-11T04:53:11.205Z,77.30
2022-10-11T04:54:13.009Z,77.31
2022-10-11T04:55:14.893Z,77.49
2022-10-11T04:56:18.070Z,77.51
2022-10-11T04:57:19.892Z,77.37
2022-10-11T04:58:21.736Z,77.46
2022-10-11T04:59:23.590Z,77.30
2022-10-11T05:00:25.428Z,77.31
2022-10-11T05:01:27.260Z,77.33
2022-10-11T05:02:29.134Z,77.20
2022-10-11T05:03:33.585Z,77.26
2022-10-11T05:04:35.655Z,77.45
2022-10-11T05:05:37.546Z,77.34
2022-10-11T05:06:39.539Z,77.70
2022-10-11T05:07:41.619Z,77.67
2022-10-11T05:08:43.625Z,77.80
2022-10-11T05:09:45.560Z,77.80
2022-10-11T05:10:59.347Z,77.93
2022-10-11T05:12:01.330Z,78.16
2022-10-11T05:13:03.292Z,78.27
2022-10-11T05:14:05.218Z,78.15
2022-10-11T05:15:08.214Z,78.26
2022-10-11T05:16:12.683Z,78.43
2022-10-11T05:17:15.026Z,78.49
2022-10-11T05:18:17.035Z,78.48
2022-10-11T05:19:19.305Z,78.49
2022-10-11T05:20:29.960Z,78.43
2022-10-11T05:21:31.927Z,78.53
2022-10-11T05:22:33.736Z,78.57
2022-10-11T05:23:37.219Z,78.50
2022-10-11T05:24:39.697Z,78.41
2022-10-11T05:25:41.841Z,78.38
2022-10-11T05:26:43.704Z,78.19
2022-10-11T05:27:45.560Z,78.32
2022-10-11T05:28:47.593Z,78.29
2022-10-11T05:29:49.592Z,78.25
2022-10-11T05:30:51.890Z,78.27
2022-10-11T05:31:53.900Z,78.22
2022-10-11T05:32:55.776Z,78.10
2022-10-11T05:33:57.960Z,77.89
2022-10-11T05:34:59.817Z,77.94
2022-10-11T05:36:02.154Z,77.98
2022-10-11T05:37:04.475Z,77.87
2022-10-11T05:38:06.662Z,77.95
2022-10-11T05:39:08.450Z,77.97
2022-10-11T05:40:11.180Z,77.95
2022-10-11T05:41:15.350Z,77.99
2022-10-11T05:42:17.266Z,77.88
2022-10-11T05:43:19.056Z,77.86
2022-10-11T05:44:20.849Z,77.93
2022-10-11T05:45:22.701Z,77.94
2022-10-11T05:46:24.550Z,77.97
2022-10-11T05:47:26.512Z,77.93
2022-10-11T05:48:28.276Z,77.90
2022-10-11T05:49:30.216Z,77.80
2022-10-11T05:50:32.962Z,77.96
2022-10-11T05:51:34.935Z,77.82
2022-10-11T05:52:36.844Z,77.79
2022-10-11T05:53:38.919Z,77.88
2022-10-11T05:54:40.790Z,77.89
2022-10-11T05:55:43.324Z,78.08
2022-10-11T05:56:45.411Z,78.14
2022-10-11T05:57:47.391Z,78.35
2022-10-11T05:58:50.355Z,78.19
2022-10-11T05:59:52.263Z,78.52
2022-10-11T06:00:56.288Z,78.60
2022-10-11T06:01:58.104Z,79.23
2022-10-11T06:02:59.996Z,79.47
2022-10-11T06:04:02.305Z,80.28
2022-10-11T06:05:04.573Z,80.99
2022-10-11T06:06:06.990Z,81.76
2022-10-11T06:07:08.907Z,81.71
2022-10-11T06:08:10.729Z,81.31
2022-10-11T06:09:12.828Z,81.89
2022-10-11T06:10:14.654Z,82.31
2022-10-11T06:11:25.565Z,81.80
2022-10-11T06:12:30.489Z,82.23
2022-10-11T06:13:32.273Z,82.54
2022-10-11T06:14:35.219Z,83.00
2022-10-11T06:15:38.662Z,83.01
2022-10-11T06:16:41.908Z,83.18
2022-10-11T06:17:43.812Z,83.87
2022-10-11T06:18:46.001Z,83.22
2022-10-11T06:19:47.772Z,83.33
2022-10-11T06:20:49.492Z,84.04
2022-10-11T06:21:51.956Z,84.34
2022-10-11T06:22:53.914Z,83.52
2022-10-11T06:24:01.118Z,83.32
2022-10-11T06:25:03.955Z,84.15
2022-10-11T06:26:08.229Z,85.77
2022-10-11T06:27:11.621Z,84.47
2022-10-11T06:28:13.504Z,84.38
2022-10-11T06:29:15.475Z,84.20
2022-10-11T06:30:17.605Z,84.87
2022-10-11T06:31:25.730Z,84.27
2022-10-11T06:32:28.550Z,84.21
2022-10-11T06:33:30.526Z,83.97
2022-10-11T06:34:32.556Z,84.14
2022-10-11T06:35:34.466Z,84.05
2022-10-11T06:36:36.295Z,84.15
2022-10-11T06:37:38.195Z,83.99
2022-10-11T06:38:44.801Z,83.80
2022-10-11T06:39:47.350Z,83.91
2022-10-11T06:40:49.189Z,83.76
2022-10-11T06:41:50.962Z,83.93
2022-10-11T06:42:53.008Z,83.87
2022-10-11T06:43:55.567Z,83.86
2022-10-11T06:44:57.419Z,83.80
2022-10-11T06:45:59.561Z,83.54
2022-10-11T06:47:01.428Z,83.61
2022-10-11T06:48:05.311Z,83.40
2022-10-11T06:49:07.605Z,83.22
2022-10-11T06:50:09.519Z,83.03
2022-10-11T06:51:12.630Z,83.39
2022-10-11T06:52:15.944Z,83.24
2022-10-11T06:53:17.855Z,82.93
2022-10-11T06:54:19.754Z,82.81
2022-10-11T06:55:21.704Z,82.64
2022-10-11T06:56:27.792Z,82.77
2022-10-11T06:57:29.698Z,82.68
2022-10-11T06:58:31.970Z,82.48
2022-10-11T06:59:33.780Z,82.55
2022-10-11T07:00:36.351Z,82.42
2022-10-11T07:01:38.354Z,82.36
2022-10-11T07:02:40.746Z,82.30
2022-10-11T07:03:42.626Z,82.21
2022-10-11T07:04:44.524Z,82.20
2022-10-11T07:05:47.217Z,82.32
2022-10-11T07:06:49.645Z,82.29
2022-10-11T07:07:54.215Z,82.53
2022-10-11T07:08:57.154Z,82.43
2022-10-11T07:09:59.255Z,82.41
2022-10-11T07:11:07.269Z,82.43
2022-10-11T07:12:09.215Z,82.26
2022-10-11T07:13:16.241Z,81.99
2022-10-11T07:14:19.064Z,81.90
2022-10-11T07:15:21.577Z,81.85
2022-10-11T07:16:24.313Z,81.82
2022-10-11T07:17:26.618Z,81.60
2022-10-11T07:18:28.663Z,81.66
2022-10-11T07:19:30.654Z,81.63
2022-10-11T07:20:32.570Z,81.53
2022-10-11T07:21:34.929Z,81.41
2022-10-11T07:22:39.473Z,81.24
2022-10-11T07:23:41.986Z,81.05
2022-10-11T07:24:43.877Z,81.17
2022-10-11T07:25:46.243Z,81.12
2022-10-11T07:26:48.338Z,80.71
2022-10-11T07:27:50.164Z,80.64
2022-10-11T07:28:52.129Z,80.27
2022-10-11T07:29:54.508Z,80.09
2022-10-11T07:30:59.421Z,79.77
2022-10-11T07:32:01.408Z,79.87
2022-10-11T07:33:03.204Z,79.82
2022-10-11T07:34:05.201Z,79.74
2022-10-11T07:35:07.744Z,79.56
2022-10-11T07:36:11.042Z,79.16
2022-10-11T07:37:12.895Z,79.34
2022-10-11T07:38:15.841Z,79.40
2022-10-11T07:39:17.657Z,79.17
2022-10-11T07:40:19.624Z,79.28
2022-10-11T07:41:24.043Z,79.09
2022-10-11T07:42:25.956Z,78.48
2022-10-11T07:43:27.793Z,78.60
2022-10-11T07:44:29.791Z,78.64
2022-10-11T07:45:32.868Z,78.67
2022-10-11T07:46:34.659Z,78.83
2022-10-11T07:47:36.467Z,78.09
2022-10-11T07:48:39.076Z,77.75
2022-10-11T07:49:40.955Z,77.61
2022-10-11T07:50:44.506Z,77.45
2022-10-11T07:51:46.300Z,77.37
2022-10-11T07:52:48.169Z,77.35
2022-10-11T07:53:52.604Z,76.74
2022-10-11T07:54:54.399Z,76.71
2022-10-11T07:55:59.992Z,76.66
2022-10-11T07:57:02.085Z,76.57
2022-10-11T07:58:04.095Z,76.22
2022-10-11T07:59:07.496Z,76.44
2022-10-11T08:00:10.073Z,76.83
2022-10-11T08:01:15.215Z,76.70
2022-10-11T08:02:16.960Z,76.40
2022-10-11T08:03:18.739Z,76.96
2022-10-11T08:04:20.970Z,77.04
2022-10-11T08:05:22.914Z,77.16
2022-10-11T08:06:31.196Z,76.91
2022-10-11T08:07:33.593Z,76.41
2022-10-11T08:08:36.146Z,76.09
2022-10-11T08:09:38.168Z,75.86
2022-10-11T08:10:40.649Z,75.38
2022-10-11T08:11:42.511Z,74.83
2022-10-11T08:12:47.165Z,73.98
2022-10-11T08:13:49.543Z,74.46
2022-10-11T08:14:54.265Z,74.27
2022-10-11T08:15:56.401Z,73.54
2022-10-11T08:16:58.594Z,73.53
2022-10-11T08:18:00.770Z,72.48
2022-10-11T08:19:02.873Z,72.31
2022-10-11T08:20:05.826Z,72.20
2022-10-11T08:21:09.750Z,71.91
2022-10-11T08:22:11.550Z,72.06
2022-10-11T08:23:15.156Z,71.47
2022-10-11T08:24:20.235Z,71.90
2022-10-11T08:25:22.099Z,72.43
2022-10-11T08:26:24.749Z,71.58
2022-10-11T08:27:26.682Z,71.42
2022-10-11T08:28:29.088Z,71.81
2022-10-11T08:29:31.836Z,71.90
2022-10-11T08:30:34.044Z,71.64
2022-10-11T08:31:37.899Z,70.92
2022-10-11T08:32:39.785Z,71.48
2022-10-11T08:33:41.700Z,70.89
2022-10-11T08:34:43.454Z,70.60
2022-10-11T08:35:45.448Z,70.53
2022-10-11T08:36:48.166Z,70.36
2022-10-11T08:37:49.980Z,69.74
2022-10-11T08:38:52.145Z,69.78
2022-10-11T08:40:02.855Z,69.76
2022-10-11T08:41:31.629Z,69.72
2022-10-11T08:42:42.697Z,69.25
2022-10-11T08:43:52.856Z,69.46
2022-10-11T08:45:16.191Z,68.91
2022-10-11T08:46:24.321Z,69.11
2022-10-11T08:47:42.574Z,69.02
2022-10-11T08:48:47.547Z,68.52
2022-10-11T08:49:53.131Z,68.66
2022-10-11T08:50:55.340Z,68.52
2022-10-11T08:52:03.874Z,68.56
2022-10-11T08:53:17.799Z,68.20
2022-10-11T08:54:35.230Z,68.56
2022-10-11T08:55:43.502Z,68.69
2022-10-11T08:56:45.949Z,68.88
2022-10-11T08:57:55.635Z,68.77
2022-10-11T08:59:04.189Z,68.79
2022-10-11T09:00:14.498Z,68.58
2022-10-11T09:01:23.466Z,68.29
2022-10-11T09:03:06.803Z,68.70
2022-10-11T09:04:14.276Z,68.97
2022-10-11T09:05:19.513Z,68.98
2022-10-11T09:06:52.870Z,68.58
2022-10-11T09:08:14.239Z,68.63
2022-10-11T09:09:40.245Z,69.07
2022-10-11T09:11:00.748Z,69.09
2022-10-11T09:12:26.146Z,69.05
2022-10-11T09:13:52.346Z,69.25
2022-10-11T09:14:57.149Z,69.48
2022-10-11T09:16:11.539Z,69.58
2022-10-11T09:17:30.137Z,69.67
2022-10-11T09:18:48.472Z,69.66
2022-10-11T09:20:02.042Z,69.61
2022-10-11T09:21:33.415Z,69.75
2022-10-11T09:22:35.188Z,69.78
2022-10-11T09:24:05.295Z,70.07
2022-10-11T09:25:23.754Z,70.03
2022-10-11T09:26:37.041Z,70.02
2022-10-11T09:28:02.464Z,70.33
2022-10-11T09:29:25.259Z,70.29
2022-10-11T09:30:31.267Z,70.44
2022-10-11T09:31:33.471Z,70.42
2022-10-11T09:32:39.491Z,70.34
2022-10-11T09:33:48.095Z,70.56
2022-10-11T09:35:08.680Z,70.84
2022-10-11T09:36:22.610Z,70.73
2022-10-11T09:37:34.707Z,71.09
2022-10-11T09:38:42.702Z,71.16
2022-10-11T09:39:56.468Z,71.34
2022-10-11T09:41:17.311Z,71.31
2022-10-11T09:42:19.387Z,71.36
2022-10-11T09:43:21.563Z,71.29
2022-10-11T09:44:31.040Z,71.30
2022-10-11T09:45:33.149Z,71.27
2022-10-11T09:46:42.444Z,71.69
2022-10-11T09:47:44.652Z,71.70
2022-10-11T09:48:47.034Z,71.86
2022-10-11T09:49:52.643Z,71.69
2022-10-11T09:51:02.305Z,71.65
2022-10-11T09:52:10.871Z,71.55
2022-10-11T09:53:14.005Z,71.57
2022-10-11T09:54:18.535Z,71.58
2022-10-11T09:55:50.443Z,71.77
2022-10-11T09:56:52.786Z,71.73
2022-10-11T09:57:57.842Z,71.80
2022-10-11T09:59:08.607Z,71.72
2022-10-11T10:00:20.829Z,71.69
2022-10-11T10:01:25.768Z,71.73
2022-10-11T10:02:29.690Z,71.65
2022-10-11T10:03:34.900Z,71.78
2022-10-11T10:05:00.324Z,71.88
2022-10-11T10:06:26.956Z,72.00
2022-10-11T10:07:31.807Z,72.00
2022-10-11T10:08:34.665Z,72.09
2022-10-11T10:09:37.354Z,72.07
2022-10-11T10:10:59.614Z,72.03
2022-10-11T10:12:12.389Z,72.23
2022-10-11T10:13:40.614Z,72.18
2022-10-11T10:14:42.468Z,72.34
2022-10-11T10:15:47.474Z,72.00
2022-10-11T10:17:02.531Z,72.16
2022-10-11T10:18:06.085Z,71.86
2022-10-11T10:19:24.974Z,71.63
2022-10-11T10:20:34.664Z,72.03
2022-10-11T10:21:45.125Z,72.09
2022-10-11T10:22:47.405Z,72.22
2022-10-11T10:23:54.849Z,72.29
2022-10-11T10:24:59.638Z,72.35
2022-10-11T10:26:16.067Z,72.39
2022-10-11T10:27:30.264Z,72.44
2022-10-11T10:28:32.472Z,72.34
2022-10-11T10:29:36.363Z,72.09
2022-10-11T10:30:59.010Z,72.14
2022-10-11T10:32:14.655Z,71.90
2022-10-11T10:33:19.449Z,72.17
2022-10-11T10:34:34.902Z,72.02
2022-10-11T10:36:09.677Z,71.72
2022-10-11T10:37:25.006Z,71.70
2022-10-11T10:38:37.900Z,71.43
2022-10-11T10:39:48.533Z,71.62
2022-10-11T10:40:57.674Z,71.43
2022-10-11T10:42:04.650Z,71.36
2022-10-11T10:43:15.146Z,71.18
2022-10-11T10:44:17.121Z,71.16
2022-10-11T10:45:26.416Z,71.09
2022-10-11T10:46:45.720Z,70.18
2022-10-11T10:48:48.173Z,70.06
2022-10-11T10:50:23.112Z,68.66
2022-10-11T10:51:24.819Z,67.67
2022-10-11T10:52:26.614Z,67.04
2022-10-11T10:53:41.634Z,67.49
2022-10-11T10:54:43.459Z,66.38
2022-10-11T10:55:52.056Z,66.10
2022-10-11T10:57:01.493Z,66.07
2022-10-11T10:58:19.021Z,65.46
2022-10-11T10:59:52.080Z,65.54
2022-10-11T11:01:08.620Z,65.12
2022-10-11T11:02:39.752Z,62.91
2022-10-11T11:03:59.562Z,63.43
2022-10-11T11:05:22.862Z,63.55
2022-10-11T11:06:42.088Z,63.16
2022-10-11T11:07:51.270Z,63.25
2022-10-11T11:09:35.650Z,63.44
2022-10-11T11:11:00.156Z,63.20
2022-10-11T11:12:23.476Z,63.39
2022-10-11T11:13:36.303Z,63.48
2022-10-11T11:15:01.419Z,63.24
2022-10-11T11:16:22.120Z,63.18
2022-10-11T11:17:39.256Z,61.91
2022-10-11T11:18:47.021Z,62.53
2022-10-11T11:20:16.542Z,62.19
2022-10-11T11:21:52.432Z,60.49
2022-10-11T11:23:21.303Z,61.19
2022-10-11T11:25:02.217Z,61.43
2022-10-11T11:26:04.677Z,59.51
2022-10-11T11:27:39.445Z,60.26
2022-10-11T11:28:49.031Z,58.27
2022-10-11T11:30:06.014Z,57.54
2022-10-11T11:32:45.951Z,56.76
2022-10-11T11:34:41.415Z,57.43
2022-10-11T11:35:48.042Z,57.02
2022-10-11T11:36:54.266Z,57.54
2022-10-11T11:38:12.808Z,56.81
2022-10-11T11:39:26.131Z,57.50
2022-10-11T11:40:40.395Z,57.98
2022-10-11T11:41:50.166Z,58.13
2022-10-11T11:42:56.609Z,58.43
2022-10-11T11:44:13.678Z,58.42
2022-10-11T11:45:22.328Z,58.74
2022-10-11T11:46:43.695Z,58.84
2022-10-11T11:48:09.472Z,58.97
2022-10-11T11:49:16.811Z,59.22
2022-10-11T11:50:26.170Z,59.26
2022-10-11T11:51:37.979Z,59.54
2022-10-11T11:52:45.276Z,59.78
2022-10-11T11:54:13.792Z,59.95
2022-10-11T11:55:35.395Z,60.19
2022-10-11T11:57:14.788Z,60.67
2022-10-11T11:58:52.815Z,60.90
2022-10-11T12:00:19.228Z,60.66
2022-10-11T12:01:31.465Z,60.88
2022-10-11T12:02:37.343Z,60.87
2022-10-11T12:04:04.161Z,60.79
2022-10-11T12:05:08.670Z,60.72
2022-10-11T12:06:13.389Z,60.91
2022-10-11T12:07:24.275Z,60.98
2022-10-11T12:08:31.409Z,61.06
2022-10-11T12:09:38.517Z,60.82
2022-10-11T12:10:49.290Z,60.39
2022-10-11T12:11:58.129Z,60.14
2022-10-11T12:13:02.805Z,60.63
2022-10-11T12:14:36.322Z,60.89
2022-10-11T12:15:38.335Z,61.05
2022-10-11T12:17:20.531Z,61.07
2022-10-11T12:18:22.783Z,60.92
2022-10-11T12:19:24.764Z,61.00
2022-10-11T12:20:41.402Z,60.40
2022-10-11T12:21:44.026Z,60.89
2022-10-11T12:23:00.605Z,60.72
2022-10-11T12:24:17.371Z,60.93
2022-10-11T12:25:21.977Z,60.76
2022-10-11T12:26:43.871Z,60.86
2022-10-11T12:27:51.030Z,60.76
2022-10-11T12:29:17.635Z,61.00
2022-10-11T12:30:47.566Z,60.89
2022-10-11T12:31:58.253Z,60.84
2022-10-11T12:33:35.462Z,60.79
2022-10-11T12:35:52.329Z,60.36
2022-10-11T12:36:54.296Z,60.53
2022-10-11T12:38:15.952Z,60.37
2022-10-11T12:39:18.071Z,60.56
2022-10-11T12:40:51.397Z,60.04
2022-10-11T12:42:17.930Z,60.16
2022-10-11T12:43:30.212Z,60.16
2022-10-11T12:44:32.096Z,60.36
2022-10-11T12:45:34.396Z,60.07
2022-10-11T12:46:57.406Z,59.87
2022-10-11T12:48:11.533Z,60.18
2022-10-11T12:49:37.934Z,60.14
2022-10-11T12:50:46.671Z,60.24
2022-10-11T12:52:14.660Z,60.29
2022-10-11T12:54:21.454Z,60.29
2022-10-11T12:55:34.495Z,59.63
2022-10-11T12:56:42.226Z,58.99
2022-10-11T12:58:15.305Z,59.01
2022-10-11T12:59:22.828Z,57.99
2022-10-11T13:00:30.742Z,58.09
2022-10-11T13:01:48.282Z,57.52
2022-10-11T13:02:50.235Z,57.69
2022-10-11T13:04:08.884Z,56.18
2022-10-11T13:05:25.612Z,55.53
2022-10-11T13:06:37.743Z,54.74
2022-10-11T13:07:40.827Z,55.17
2022-10-11T13:08:48.514Z,54.86
2022-10-11T13:09:53.596Z,54.85
2022-10-11T13:11:00.726Z,55.16
2022-10-11T13:12:18.237Z,55.53
2022-10-11T13:13:25.921Z,55.64
2022-10-11T13:14:30.558Z,55.44
2022-10-11T13:15:34.048Z,55.13
2022-10-11T13:17:04.320Z,54.45
2022-10-11T13:18:14.094Z,54.03
2022-10-11T13:19:16.627Z,53.88
2022-10-11T13:20:23.373Z,54.29
2022-10-11T13:21:31.583Z,54.82
2022-10-11T13:22:35.351Z,53.98
2022-10-11T13:23:38.443Z,54.68
2022-10-11T13:24:40.830Z,54.74
2022-10-11T13:25:43.012Z,54.97
2022-10-11T13:26:47.600Z,54.69
2022-10-11T13:27:52.259Z,54.78
2022-10-11T13:28:54.894Z,54.89
2022-10-11T13:30:01.583Z,54.95
2022-10-11T13:31:05.227Z,55.03
2022-10-11T13:32:13.052Z,55.07
2022-10-11T13:33:24.737Z,55.45
2022-10-11T13:34:30.577Z,55.83
2022-10-11T13:35:37.742Z,55.94
2022-10-11T13:36:42.106Z,55.74
2022-10-11T13:37:48.525Z,56.01
2022-10-11T13:38:57.261Z,55.98
2022-10-11T13:40:03.962Z,56.06
2022-10-11T13:41:09.447Z,56.26
2022-10-11T13:42:17.696Z,56.73
2022-10-11T13:43:24.437Z,56.71
2022-10-11T13:44:26.759Z,56.80
2022-10-11T13:45:32.248Z,56.84
2022-10-11T13:46:36.872Z,57.07
2022-10-11T13:47:39.003Z,57.11
2022-10-11T13:48:40.936Z,57.29
2022-10-11T13:50:04.824Z,57.28
2022-10-11T13:51:26.269Z,57.48
2022-10-11T13:52:27.895Z,57.58
2022-10-11T13:53:29.663Z,57.67
2022-10-11T13:55:00.458Z,57.63
2022-10-11T13:56:07.935Z,57.67
2022-10-11T13:57:12.645Z,57.77
2022-10-11T13:58:19.222Z,58.00
2022-10-11T13:59:27.668Z,57.93
2022-10-11T14:00:36.676Z,57.81
2022-10-11T14:01:43.345Z,57.59
2022-10-11T14:02:50.827Z,57.19
2022-10-11T14:04:15.008Z,57.47
2022-10-11T14:05:44.822Z,57.83
2022-10-11T14:06:57.666Z,57.89
2022-10-11T14:08:03.446Z,57.78
2022-10-11T14:09:21.267Z,57.49
2022-10-11T14:10:23.975Z,57.83
2022-10-11T14:11:38.949Z,57.72
2022-10-11T14:12:43.810Z,57.97
2022-10-11T14:13:49.148Z,57.83
2022-10-11T14:14:52.485Z,58.33
2022-10-11T14:16:06.679Z,58.59
2022-10-11T14:17:18.080Z,58.55
2022-10-11T14:18:57.275Z,58.77
2022-10-11T14:20:19.690Z,58.44
2022-10-11T14:21:45.209Z,58.60
2022-10-11T14:22:50.857Z,58.54
2022-10-11T14:23:53.984Z,58.77
2022-10-11T14:24:55.777Z,58.68
2022-10-11T14:25:57.597Z,58.67
2022-10-11T14:27:01.054Z,58.72
2022-10-11T14:28:05.339Z,58.95
2022-10-11T14:29:13.345Z,59.46
2022-10-11T14:30:25.732Z,59.69
2022-10-11T14:31:29.484Z,59.85
2022-10-11T14:32:33.608Z,59.93
2022-10-11T14:33:36.079Z,59.71
2022-10-11T14:34:38.029Z,59.64
2022-10-11T14:35:41.069Z,59.69
2022-10-11T14:36:42.859Z,59.82
2022-10-11T14:37:45.497Z,60.15
2022-10-11T14:38:47.390Z,60.36
2022-10-11T14:39:50.351Z,60.52
2022-10-11T14:40:52.307Z,60.50
2022-10-11T14:41:54.450Z,60.66
2022-10-11T14:42:56.650Z,60.97